Time;durP1;ratioP1;P1;durP2;ratioP2;P2;SDS_P1;SDS_P2;PMS_P1;PMS_P2;Temp;Humidity;BMP_temperature;BMP_pressure;BME280_temperature;BME280_humidity;BME280_pressure;Samples;Min_cycle;Max_cycle;Signal;HPM_P1;HPM_P2
2023/06/30 00:01:48;;;;;;;6.30;5.30;;;;;;;;;;761567;183;923334;-61
2023/06/30 00:04:06;;;;;;;7.93;5.70;;;;;;;;;;761074;183;917065;-61
2023/06/30 00:06:32;;;;;;;7.03;5.80;;;;;;;;;;769505;183;814778;-61
2023/06/30 00:08:58;;;;;;;8.20;5.83;;;;;;;;;;778233;180;919303;-58
2023/06/30 00:11:24;;;;;;;6.57;5.33;;;;;;;;;;760999;183;918860;-58
2023/06/30 00:13:50;;;;;;;9.40;5.03;;;;;;;;;;765540;184;917619;-61
2023/06/30 00:16:16;;;;;;;8.60;5.27;;;;;;;;;;760673;183;922480;-62
2023/06/30 00:18:42;;;;;;;6.50;5.07;;;;;;;;;;759869;183;919672;-62
2023/06/30 00:21:07;;;;;;;9.30;6.20;;;;;;;;;;761580;183;919869;-61
2023/06/30 00:23:33;;;;;;;8.30;5.23;;;;;;;;;;770111;180;924498;-62
2023/06/30 00:25:59;;;;;;;8.30;6.10;;;;;;;;;;773090;177;1026312;-62
2023/06/30 00:28:25;;;;;;;6.53;4.97;;;;;;;;;;774146;177;918552;-61
2023/06/30 00:30:51;;;;;;;9.43;5.20;;;;;;;;;;767582;183;915317;-62
2023/06/30 00:33:17;;;;;;;7.23;4.50;;;;;;;;;;773610;179;920411;-61
2023/06/30 00:35:43;;;;;;;9.40;5.43;;;;;;;;;;766361;179;918455;-61
2023/06/30 00:38:08;;;;;;;11.90;5.10;;;;;;;;;;766775;182;919214;-61
2023/06/30 00:40:34;;;;;;;10.80;5.20;;;;;;;;;;762236;183;923780;-61
2023/06/30 00:43:00;;;;;;;7.30;5.60;;;;;;;;;;763651;180;865294;-60
2023/06/30 00:45:26;;;;;;;5.87;5.10;;;;;;;;;;774263;177;919277;-62
2023/06/30 00:47:52;;;;;;;9.37;5.27;;;;;;;;;;765660;183;929646;-62
2023/06/30 00:50:18;;;;;;;9.50;5.80;;;;;;;;;;763555;180;919668;-61
2023/06/30 00:52:45;;;;;;;9.57;5.90;;;;;;;;;;777533;177;818453;-58
2023/06/30 00:55:09;;;;;;;9.70;6.23;;;;;;;;;;783761;179;819265;-58
2023/06/30 00:57:35;;;;;;;8.33;5.63;;;;;;;;;;780324;177;818998;-59
2023/06/30 01:00:05;;;;;;;10.55;5.18;;;;;;;;;;765020;183;919453;-62
2023/06/30 01:02:27;;;;;;;9.43;5.60;;;;;;;;;;768089;183;818214;-61
2023/06/30 01:04:53;;;;;;;8.83;5.97;;;;;;;;;;779114;179;817360;-58
2023/06/30 01:07:21;;;;;;;12.57;5.60;;;;;;;;;;777711;176;919506;-61
2023/06/30 01:09:47;;;;;;;13.77;7.73;;;;;;;;;;778512;177;919139;-61
2023/06/30 01:12:13;;;;;;;8.05;5.75;;;;;;;;;;769411;180;817257;-60
2023/06/30 01:14:39;;;;;;;38.40;7.70;;;;;;;;;;763598;183;867096;-61
2023/06/30 01:17:05;;;;;;;6.67;5.67;;;;;;;;;;761067;183;920225;-60
2023/06/30 01:19:31;;;;;;;10.90;6.25;;;;;;;;;;773324;179;816996;-61
2023/06/30 01:21:57;;;;;;;10.23;5.97;;;;;;;;;;777302;177;917313;-62
2023/06/30 01:24:22;;;;;;;8.47;5.80;;;;;;;;;;774397;177;921565;-63
2023/06/30 01:26:49;;;;;;;5.47;4.83;;;;;;;;;;781019;180;888549;-63
2023/06/30 01:29:14;;;;;;;9.73;5.10;;;;;;;;;;777064;179;919383;-64
2023/06/30 01:31:43;;;;;;;15.90;7.12;;;;;;;;;;763418;183;919159;-64
2023/06/30 01:34:06;;;;;;;8.40;5.37;;;;;;;;;;761378;181;918883;-61
2023/06/30 01:36:32;;;;;;;7.00;5.90;;;;;;;;;;769634;183;918777;-63
2023/06/30 01:38:57;;;;;;;13.37;5.57;;;;;;;;;;760952;184;921040;-63
2023/06/30 01:41:23;;;;;;;10.07;6.20;;;;;;;;;;760473;183;919184;-63
2023/06/30 01:43:49;;;;;;;7.50;5.10;;;;;;;;;;779204;180;919591;-60
2023/06/30 01:46:15;;;;;;;11.10;5.70;;;;;;;;;;773851;180;911772;-63
2023/06/30 01:48:41;;;;;;;7.10;5.10;;;;;;;;;;765284;180;920646;-60
2023/06/30 01:51:07;;;;;;;9.40;5.80;;;;;;;;;;765835;184;921276;-62
2023/06/30 01:53:32;;;;;;;10.17;5.83;;;;;;;;;;761942;184;919890;-60
2023/06/30 01:55:58;;;;;;;15.00;5.70;;;;;;;;;;778695;179;816639;-60
2023/06/30 01:58:24;;;;;;;9.80;5.73;;;;;;;;;;759891;183;817335;-62
2023/06/30 02:00:50;;;;;;;10.93;5.93;;;;;;;;;;768117;183;918841;-63
2023/06/30 02:03:16;;;;;;;13.90;5.83;;;;;;;;;;763909;183;919028;-63
2023/06/30 02:05:42;;;;;;;10.30;5.13;;;;;;;;;;764324;182;919427;-60
2023/06/30 02:08:07;;;;;;;8.37;5.80;;;;;;;;;;769784;183;816672;-64
2023/06/30 02:10:33;;;;;;;7.57;5.47;;;;;;;;;;779738;178;872727;-60
2023/06/30 02:12:59;;;;;;;13.63;5.90;;;;;;;;;;762499;183;919307;-60
2023/06/30 02:15:25;;;;;;;6.93;4.80;;;;;;;;;;769117;183;917811;-61
2023/06/30 02:17:51;;;;;;;16.27;5.95;;;;;;;;;;762192;183;918676;-63
2023/06/30 02:20:17;;;;;;;12.67;6.13;;;;;;;;;;774024;176;918942;-66
2023/06/30 02:22:43;;;;;;;11.93;5.83;;;;;;;;;;777386;176;916285;-63
2023/06/30 02:25:09;;;;;;;11.03;5.73;;;;;;;;;;777032;180;816846;-62
2023/06/30 02:27:35;;;;;;;11.37;6.63;;;;;;;;;;766388;180;941234;-62
2023/06/30 02:30:05;;;;;;;12.30;5.68;;;;;;;;;;761214;183;917459;-60
2023/06/30 02:32:27;;;;;;;10.73;6.00;;;;;;;;;;770724;183;904169;-59
2023/06/30 02:34:53;;;;;;;9.70;5.28;;;;;;;;;;768932;177;919886;-63
2023/06/30 02:37:19;;;;;;;9.43;5.50;;;;;;;;;;772879;180;921890;-63
2023/06/30 02:39:45;;;;;;;10.80;5.70;;;;;;;;;;767133;184;917745;-60
2023/06/30 02:42:11;;;;;;;12.17;5.43;;;;;;;;;;766909;180;864368;-60
2023/06/30 02:44:36;;;;;;;16.75;5.78;;;;;;;;;;774424;179;914813;-63
2023/06/30 02:47:03;;;;;;;14.60;6.47;;;;;;;;;;781024;180;917453;-62
2023/06/30 02:49:28;;;;;;;13.93;6.00;;;;;;;;;;763260;183;919418;-61
2023/06/30 02:51:54;;;;;;;13.47;6.03;;;;;;;;;;763259;180;921687;-60
2023/06/30 02:54:20;;;;;;;14.17;6.40;;;;;;;;;;774561;180;1019082;-60
2023/06/30 02:56:46;;;;;;;11.73;6.77;;;;;;;;;;768856;181;918978;-60
2023/06/30 02:59:12;;;;;;;11.53;5.83;;;;;;;;;;770246;180;916230;-63
2023/06/30 03:01:40;;;;;;;11.03;5.60;;;;;;;;;;762080;183;918367;-60
2023/06/30 03:04:04;;;;;;;14.07;6.20;;;;;;;;;;765446;183;921082;-60
2023/06/30 03:06:29;;;;;;;13.77;5.83;;;;;;;;;;762860;181;916739;-63
2023/06/30 03:08:55;;;;;;;12.73;5.97;;;;;;;;;;763206;181;923486;-60
2023/06/30 03:11:21;;;;;;;20.27;5.73;;;;;;;;;;779779;179;910695;-63
2023/06/30 03:13:48;;;;;;;20.43;5.90;;;;;;;;;;763361;183;918632;-60
2023/06/30 03:16:13;;;;;;;21.10;6.03;;;;;;;;;;764254;183;917798;-60
2023/06/30 03:18:39;;;;;;;15.67;5.90;;;;;;;;;;770542;180;919285;-57
2023/06/30 03:21:04;;;;;;;18.60;6.40;;;;;;;;;;781538;179;821667;-61
2023/06/30 03:23:30;;;;;;;17.30;8.50;;;;;;;;;;776840;177;919561;-64
2023/06/30 03:25:56;;;;;;;9.57;6.30;;;;;;;;;;773759;180;919015;-60
2023/06/30 03:28:22;;;;;;;19.47;8.43;;;;;;;;;;766574;183;917513;-63
2023/06/30 03:30:48;;;;;;;9.40;6.13;;;;;;;;;;761664;182;919029;-63
2023/06/30 03:33:14;;;;;;;14.50;7.43;;;;;;;;;;777748;179;919703;-64
2023/06/30 03:35:39;;;;;;;14.93;6.73;;;;;;;;;;780571;180;919222;-65
2023/06/30 03:38:05;;;;;;;12.67;7.33;;;;;;;;;;765007;180;920111;-62
2023/06/30 03:40:31;;;;;;;14.37;7.70;;;;;;;;;;762105;183;920048;-64
2023/06/30 03:42:57;;;;;;;14.50;7.00;;;;;;;;;;763693;183;922111;-63
2023/06/30 03:45:23;;;;;;;20.33;8.00;;;;;;;;;;761539;181;922178;-60
2023/06/30 03:47:49;;;;;;;11.97;6.97;;;;;;;;;;777783;180;919305;-60
2023/06/30 03:50:14;;;;;;;12.13;7.47;;;;;;;;;;762945;183;816627;-64
2023/06/30 03:52:40;;;;;;;12.63;7.30;;;;;;;;;;768120;183;860824;-60
2023/06/30 03:55:06;;;;;;;14.40;7.17;;;;;;;;;;758818;183;918982;-64
2023/06/30 03:57:32;;;;;;;10.23;7.87;;;;;;;;;;760277;183;1021420;-60
2023/06/30 03:59:58;;;;;;;8.47;7.60;;;;;;;;;;765591;183;919649;-64
2023/06/30 04:02:24;;;;;;;20.13;8.07;;;;;;;;;;761815;183;918945;-60
2023/06/30 04:04:50;;;;;;;17.50;8.00;;;;;;;;;;763702;183;919617;-63
2023/06/30 04:07:16;;;;;;;13.40;7.10;;;;;;;;;;766375;183;922292;-64
2023/06/30 04:09:42;;;;;;;24.43;7.43;;;;;;;;;;766656;184;917491;-61
2023/06/30 04:12:09;;;;;;;18.77;7.67;;;;;;;;;;761757;183;917387;-62
2023/06/30 04:14:34;;;;;;;13.13;7.40;;;;;;;;;;776514;180;918138;-64
2023/06/30 04:17:00;;;;;;;12.30;7.10;;;;;;;;;;767332;181;816673;-60
2023/06/30 04:19:26;;;;;;;18.37;6.43;;;;;;;;;;762094;183;918201;-61
2023/06/30 04:21:52;;;;;;;13.40;7.33;;;;;;;;;;763530;183;819463;-61
2023/06/30 04:24:19;;;;;;;7.77;6.40;;;;;;;;;;767832;183;819131;-61
2023/06/30 04:26:44;;;;;;;12.23;7.67;;;;;;;;;;776117;180;916846;-63
2023/06/30 04:29:09;;;;;;;15.37;7.90;;;;;;;;;;764433;182;918962;-64
2023/06/30 04:31:35;;;;;;;13.17;8.60;;;;;;;;;;768352;181;919175;-66
2023/06/30 04:34:01;;;;;;;10.23;7.73;;;;;;;;;;766921;180;918369;-64
2023/06/30 04:36:29;;;;;;;17.53;9.27;;;;;;;;;;779622;179;633366;-61
2023/06/30 04:38:53;;;;;;;10.30;8.27;;;;;;;;;;781411;179;629399;-61
2023/06/30 04:41:19;;;;;;;10.97;7.97;;;;;;;;;;783008;180;818439;-61
2023/06/30 04:43:44;;;;;;;11.10;8.67;;;;;;;;;;762053;180;906799;-63
2023/06/30 04:46:10;;;;;;;13.35;8.93;;;;;;;;;;763960;183;918244;-64
2023/06/30 04:48:36;;;;;;;9.70;8.33;;;;;;;;;;777668;180;919379;-63
2023/06/30 04:51:02;;;;;;;9.90;7.73;;;;;;;;;;775747;179;918918;-62
2023/06/30 04:53:28;;;;;;;11.50;7.13;;;;;;;;;;765601;180;918796;-61
2023/06/30 04:55:54;;;;;;;9.68;6.97;;;;;;;;;;768172;184;816679;-63
2023/06/30 04:58:20;;;;;;;9.73;7.27;;;;;;;;;;762576;183;917883;-61
2023/06/30 05:00:45;;;;;;;8.33;6.67;;;;;;;;;;761938;183;827003;-62
2023/06/30 05:03:11;;;;;;;9.33;7.40;;;;;;;;;;761929;183;816725;-62
2023/06/30 05:05:37;;;;;;;14.47;7.53;;;;;;;;;;766497;182;919352;-60
2023/06/30 05:08:03;;;;;;;12.97;6.37;;;;;;;;;;761149;183;915249;-62
2023/06/30 05:10:29;;;;;;;6.87;6.17;;;;;;;;;;762140;181;914737;-61
2023/06/30 05:12:55;;;;;;;8.70;6.43;;;;;;;;;;781787;179;884133;-62
2023/06/30 05:15:20;;;;;;;13.40;6.50;;;;;;;;;;758795;183;936876;-62
2023/06/30 05:17:46;;;;;;;8.67;6.60;;;;;;;;;;762530;180;921012;-62
2023/06/30 05:20:12;;;;;;;13.20;7.10;;;;;;;;;;781638;180;817493;-61
2023/06/30 05:22:38;;;;;;;17.33;8.10;;;;;;;;;;763582;183;926384;-61
2023/06/30 05:25:04;;;;;;;16.23;7.17;;;;;;;;;;759341;183;918691;-62
2023/06/30 05:27:30;;;;;;;7.03;6.20;;;;;;;;;;762302;183;920980;-61
2023/06/30 05:29:56;;;;;;;8.13;6.90;;;;;;;;;;763401;183;917243;-61
2023/06/30 05:32:22;;;;;;;7.70;5.70;;;;;;;;;;761680;183;919188;-61
2023/06/30 05:34:47;;;;;;;7.00;5.63;;;;;;;;;;761427;183;918839;-63
2023/06/30 05:37:13;;;;;;;7.27;6.13;;;;;;;;;;777773;180;919239;-62
2023/06/30 05:39:39;;;;;;;8.30;5.90;;;;;;;;;;776460;179;922297;-64
2023/06/30 05:42:05;;;;;;;8.10;6.17;;;;;;;;;;778329;176;844366;-63
2023/06/30 05:44:31;;;;;;;7.90;5.70;;;;;;;;;;778153;179;918323;-61
2023/06/30 05:46:57;;;;;;;8.50;6.00;;;;;;;;;;764872;183;919736;-63
2023/06/30 05:53:09;;;;;;;6.03;4.63;;;;;;;;;;785095;175;32339;-70
2023/06/30 05:55:41;;;;;;;7.15;5.32;;;;;;;;;;737563;187;1379483;-70
2023/06/30 05:58:13;;;;;;;12.80;5.27;;;;;;;;;;720501;186;5258343;-70
2023/06/30 06:03:48;;;;;;;6.10;5.10;;;;;;;;;;749710;186;26719;-72
2023/06/30 06:22:43;;;;;;;6.40;4.17;;;;;;;;;;783904;170;783611;-63
2023/06/30 06:25:10;;;;;;;5.20;3.73;;;;;;;;;;770317;182;915779;-61
2023/06/30 06:27:36;;;;;;;6.23;3.93;;;;;;;;;;753597;183;914928;-59
2023/06/30 06:30:02;;;;;;;5.47;3.60;;;;;;;;;;761651;182;918610;-61
2023/06/30 06:32:28;;;;;;;5.10;3.50;;;;;;;;;;761030;182;914366;-59
2023/06/30 06:34:53;;;;;;;5.83;3.23;;;;;;;;;;768886;182;918858;-62
2023/06/30 06:37:19;;;;;;;7.13;4.20;;;;;;;;;;766305;181;916353;-62
2023/06/30 06:39:45;;;;;;;7.80;3.67;;;;;;;;;;763848;182;957677;-60
2023/06/30 06:42:11;;;;;;;4.50;3.43;;;;;;;;;;772349;181;822613;-62
2023/06/30 06:44:37;;;;;;;6.30;4.30;;;;;;;;;;765708;181;933966;-62
2023/06/30 06:47:09;;;;;;;8.73;4.40;;;;;;;;;;761492;182;977072;-62
2023/06/30 06:49:34;;;;;;;11.70;3.30;;;;;;;;;;763613;182;923762;-61
2023/06/30 06:52:00;;;;;;;4.30;3.60;;;;;;;;;;768105;181;817380;-60
2023/06/30 06:54:26;;;;;;;5.43;4.00;;;;;;;;;;763106;182;919630;-60
2023/06/30 06:56:52;;;;;;;8.10;3.10;;;;;;;;;;762694;182;918461;-62
2023/06/30 06:59:18;;;;;;;5.53;3.57;;;;;;;;;;769684;181;816604;-62
2023/06/30 07:01:44;;;;;;;7.40;3.80;;;;;;;;;;763283;182;895994;-60
2023/06/30 07:04:09;;;;;;;5.33;3.50;;;;;;;;;;755185;182;912183;-60
2023/06/30 07:06:35;;;;;;;4.60;3.70;;;;;;;;;;764862;184;918344;-59
2023/06/30 07:09:01;;;;;;;7.03;3.90;;;;;;;;;;763198;182;919476;-62
2023/06/30 07:11:27;;;;;;;4.43;3.40;;;;;;;;;;749594;183;918478;-61
2023/06/30 07:13:53;;;;;;;4.80;3.27;;;;;;;;;;760608;181;921155;-60
2023/06/30 07:16:21;;;;;;;5.17;3.27;;;;;;;;;;765341;180;919777;-61
2023/06/30 07:18:45;;;;;;;5.30;3.33;;;;;;;;;;764738;180;814500;-61
2023/06/30 07:21:11;;;;;;;6.70;3.50;;;;;;;;;;762185;182;915634;-62
2023/06/30 07:23:36;;;;;;;14.67;4.60;;;;;;;;;;766145;179;914346;-60
2023/06/30 07:26:02;;;;;;;4.10;2.97;;;;;;;;;;749318;186;919063;-62
2023/06/30 07:28:28;;;;;;;3.97;3.20;;;;;;;;;;756084;182;918459;-61
2023/06/30 07:30:54;;;;;;;5.60;3.67;;;;;;;;;;765839;183;919129;-61
2023/06/30 07:33:20;;;;;;;4.83;3.00;;;;;;;;;;769781;181;916683;-61
2023/06/30 07:35:45;;;;;;;4.63;3.30;;;;;;;;;;769042;182;788650;-61
2023/06/30 07:38:11;;;;;;;4.47;3.20;;;;;;;;;;764353;182;921429;-61
2023/06/30 07:40:37;;;;;;;5.40;3.17;;;;;;;;;;772354;181;622085;-61
2023/06/30 07:43:03;;;;;;;5.20;2.70;;;;;;;;;;765752;180;714756;-62
2023/06/30 07:45:29;;;;;;;5.37;3.40;;;;;;;;;;764329;182;813212;-61
2023/06/30 07:47:55;;;;;;;8.43;3.60;;;;;;;;;;768161;181;817941;-61
2023/06/30 07:50:21;;;;;;;5.50;3.12;;;;;;;;;;764131;181;918720;-61
2023/06/30 07:52:47;;;;;;;3.73;3.10;;;;;;;;;;769513;181;872318;-63
2023/06/30 07:55:15;;;;;;;4.40;3.20;;;;;;;;;;768809;182;922984;-62
2023/06/30 07:57:39;;;;;;;3.85;3.08;;;;;;;;;;749213;184;914901;-62
2023/06/30 08:00:06;;;;;;;5.80;3.20;;;;;;;;;;751964;182;880292;-62
2023/06/30 08:02:32;;;;;;;5.22;3.15;;;;;;;;;;767875;181;920449;-61
2023/06/30 08:04:57;;;;;;;6.40;3.33;;;;;;;;;;758393;183;917684;-62
2023/06/30 08:07:23;;;;;;;7.00;3.60;;;;;;;;;;750288;186;919703;-61
2023/06/30 08:09:49;;;;;;;3.83;2.83;;;;;;;;;;744729;186;919561;-62
2023/06/30 08:12:15;;;;;;;4.77;3.40;;;;;;;;;;763956;181;919402;-62
2023/06/30 08:14:41;;;;;;;5.17;2.83;;;;;;;;;;755191;181;919696;-61
2023/06/30 08:17:07;;;;;;;5.70;3.17;;;;;;;;;;758447;181;919789;-62
2023/06/30 08:19:32;;;;;;;4.70;3.30;;;;;;;;;;755454;185;857574;-63
2023/06/30 08:22:01;;;;;;;4.40;3.17;;;;;;;;;;758918;182;845319;-61
2023/06/30 08:24:24;;;;;;;7.33;2.63;;;;;;;;;;758363;184;918967;-61
2023/06/30 08:26:50;;;;;;;5.07;2.80;;;;;;;;;;771696;182;985854;-63
2023/06/30 08:29:16;;;;;;;4.70;2.70;;;;;;;;;;764856;182;918292;-62
2023/06/30 08:31:42;;;;;;;4.47;3.00;;;;;;;;;;763275;181;915065;-62
2023/06/30 08:34:10;;;;;;;6.13;3.20;;;;;;;;;;761266;182;915462;-62
2023/06/30 08:36:33;;;;;;;3.67;2.73;;;;;;;;;;760948;183;816149;-63
2023/06/30 08:38:59;;;;;;;4.50;3.10;;;;;;;;;;761636;182;923664;-62
2023/06/30 08:41:25;;;;;;;5.63;3.60;;;;;;;;;;765857;181;919430;-63
2023/06/30 08:43:51;;;;;;;6.23;2.90;;;;;;;;;;769848;182;819402;-62
2023/06/30 08:46:17;;;;;;;3.83;2.50;;;;;;;;;;748670;185;817582;-62
2023/06/30 08:48:43;;;;;;;5.03;3.30;;;;;;;;;;759191;182;913930;-62
2023/06/30 08:51:08;;;;;;;4.53;3.23;;;;;;;;;;761225;182;812601;-62
2023/06/30 08:53:34;;;;;;;9.40;3.53;;;;;;;;;;765760;182;818430;-62
2023/06/30 08:56:00;;;;;;;4.37;3.10;;;;;;;;;;762129;182;919393;-63
2023/06/30 08:58:27;;;;;;;8.75;3.40;;;;;;;;;;760796;182;919229;-63
2023/06/30 09:00:52;;;;;;;4.43;3.00;;;;;;;;;;748075;187;914467;-63
2023/06/30 09:03:18;;;;;;;9.40;2.90;;;;;;;;;;760019;182;917663;-63
2023/06/30 09:05:44;;;;;;;5.63;3.50;;;;;;;;;;758806;182;920015;-63
2023/06/30 09:08:10;;;;;;;6.10;3.33;;;;;;;;;;763433;182;823842;-63
2023/06/30 09:10:37;;;;;;;4.00;2.73;;;;;;;;;;767576;181;916683;-63
2023/06/30 09:13:02;;;;;;;5.03;3.07;;;;;;;;;;764532;182;918651;-63
2023/06/30 09:15:28;;;;;;;5.77;3.00;;;;;;;;;;767282;182;919850;-63
2023/06/30 09:17:53;;;;;;;6.33;3.30;;;;;;;;;;759037;182;914686;-64
2023/06/30 09:20:19;;;;;;;3.50;2.70;;;;;;;;;;762265;182;924077;-63
2023/06/30 09:22:45;;;;;;;4.43;3.13;;;;;;;;;;762411;182;916156;-63
2023/06/30 09:25:27;;;;;;;3.60;2.57;;;;;;;;;;760923;184;626585;-64
2023/06/30 09:27:52;;;;;;;3.80;2.63;;;;;;;;;;758780;183;815805;-64
2023/06/30 09:30:18;;;;;;;5.53;3.10;;;;;;;;;;760760;181;917524;-64
2023/06/30 09:32:44;;;;;;;7.33;3.20;;;;;;;;;;763332;182;919211;-63
2023/06/30 09:35:13;;;;;;;8.20;2.70;;;;;;;;;;767577;182;921417;-64
2023/06/30 09:37:41;;;;;;;14.43;2.87;;;;;;;;;;765407;182;919010;-64
2023/06/30 09:40:07;;;;;;;7.70;2.93;;;;;;;;;;763094;181;919635;-64
2023/06/30 09:42:34;;;;;;;3.63;2.40;;;;;;;;;;764977;182;918642;-63
2023/06/30 09:44:59;;;;;;;4.77;2.73;;;;;;;;;;755609;182;919689;-64
2023/06/30 09:47:25;;;;;;;3.37;2.62;;;;;;;;;;763074;182;920319;-64
2023/06/30 09:49:51;;;;;;;4.23;2.60;;;;;;;;;;764599;182;920582;-64
2023/06/30 09:52:17;;;;;;;4.47;3.10;;;;;;;;;;761824;182;916930;-64
2023/06/30 09:54:43;;;;;;;4.60;2.67;;;;;;;;;;757986;182;913659;-65
2023/06/30 09:57:09;;;;;;;5.37;2.73;;;;;;;;;;767538;181;920740;-63
2023/06/30 09:59:34;;;;;;;3.40;2.63;;;;;;;;;;769395;182;815905;-65
2023/06/30 10:02:00;;;;;;;5.83;3.07;;;;;;;;;;759113;182;920484;-66
2023/06/30 10:04:28;;;;;;;4.23;2.63;;;;;;;;;;763901;182;821596;-64
2023/06/30 10:06:52;;;;;;;6.97;2.87;;;;;;;;;;766243;181;923892;-65
2023/06/30 10:09:21;;;;;;;5.40;2.97;;;;;;;;;;763011;182;919210;-64
2023/06/30 10:11:46;;;;;;;4.03;2.80;;;;;;;;;;763122;182;926115;-65
2023/06/30 10:14:13;;;;;;;6.00;3.50;;;;;;;;;;749268;184;824510;-66
2023/06/30 10:16:39;;;;;;;3.80;2.77;;;;;;;;;;766931;182;918076;-65
2023/06/30 10:19:04;;;;;;;11.93;2.47;;;;;;;;;;764480;182;916731;-65
2023/06/30 10:21:30;;;;;;;9.02;3.00;;;;;;;;;;761163;182;914703;-65
2023/06/30 10:23:56;;;;;;;5.17;2.57;;;;;;;;;;766340;181;816680;-65
2023/06/30 10:26:22;;;;;;;5.00;3.20;;;;;;;;;;762044;182;918929;-65
2023/06/30 10:28:47;;;;;;;5.03;2.83;;;;;;;;;;761828;182;918952;-66
2023/06/30 10:31:13;;;;;;;8.23;2.70;;;;;;;;;;767088;182;817503;-65
2023/06/30 10:33:39;;;;;;;4.23;2.50;;;;;;;;;;761567;182;910934;-65
2023/06/30 10:36:05;;;;;;;5.13;2.90;;;;;;;;;;750869;186;907992;-65
2023/06/30 10:38:31;;;;;;;4.70;3.07;;;;;;;;;;759852;182;920701;-65
2023/06/30 10:41:17;;;;;;;5.57;3.50;;;;;;;;;;769140;182;624232;-65
2023/06/30 10:43:47;;;;;;;4.07;2.90;;;;;;;;;;768759;182;611287;-65
2023/06/30 10:46:13;;;;;;;7.83;3.20;;;;;;;;;;761657;181;916097;-64
2023/06/30 10:48:39;;;;;;;3.63;2.40;;;;;;;;;;760954;182;816822;-65
2023/06/30 10:51:05;;;;;;;7.57;3.45;;;;;;;;;;763816;181;1020601;-65
2023/06/30 10:53:31;;;;;;;3.90;2.77;;;;;;;;;;762650;182;813109;-64
2023/06/30 10:55:57;;;;;;;3.70;2.53;;;;;;;;;;759991;181;821225;-66
2023/06/30 10:58:23;;;;;;;6.20;2.70;;;;;;;;;;762634;181;813385;-65
2023/06/30 11:00:55;;;;;;;4.23;2.20;;;;;;;;;;769297;181;626622;-65
2023/06/30 11:03:21;;;;;;;4.50;2.53;;;;;;;;;;761197;182;858140;-66
2023/06/30 11:05:47;;;;;;;6.20;3.25;;;;;;;;;;762663;182;919529;-65
2023/06/30 11:08:13;;;;;;;5.17;2.33;;;;;;;;;;766207;182;918422;-68
2023/06/30 11:10:43;;;;;;;3.20;2.50;;;;;;;;;;771910;181;865774;-65
2023/06/30 11:13:10;;;;;;;4.00;2.63;;;;;;;;;;762802;181;884429;-65
2023/06/30 11:15:37;;;;;;;4.07;2.70;;;;;;;;;;763245;181;916233;-65
2023/06/30 11:18:03;;;;;;;4.50;2.53;;;;;;;;;;763121;182;914246;-65
2023/06/30 11:20:30;;;;;;;5.53;2.53;;;;;;;;;;761767;182;884094;-66
2023/06/30 11:22:55;;;;;;;5.40;3.00;;;;;;;;;;742136;183;883714;-67
2023/06/30 11:25:21;;;;;;;4.33;2.63;;;;;;;;;;756391;182;919262;-64
2023/06/30 11:27:47;;;;;;;6.07;3.17;;;;;;;;;;762985;182;918710;-64
2023/06/30 11:30:13;;;;;;;5.27;3.07;;;;;;;;;;766127;181;821745;-67
2023/06/30 11:32:39;;;;;;;3.80;2.85;;;;;;;;;;765276;182;716054;-66
2023/06/30 11:35:07;;;;;;;3.60;2.43;;;;;;;;;;769817;182;918380;-66
2023/06/30 11:37:36;;;;;;;3.80;2.80;;;;;;;;;;766417;182;922389;-65
2023/06/30 11:39:58;;;;;;;4.10;2.50;;;;;;;;;;762488;182;919139;-64
2023/06/30 11:42:24;;;;;;;4.10;2.60;;;;;;;;;;774099;182;619998;-66
2023/06/30 11:44:49;;;;;;;6.00;3.07;;;;;;;;;;770563;182;623962;-64
2023/06/30 11:47:15;;;;;;;5.23;2.80;;;;;;;;;;766633;182;625788;-66
2023/06/30 11:49:41;;;;;;;6.73;2.93;;;;;;;;;;762832;183;818618;-65
2023/06/30 11:52:07;;;;;;;9.30;2.83;;;;;;;;;;755451;184;919087;-64
2023/06/30 11:54:33;;;;;;;4.27;3.10;;;;;;;;;;761854;183;923431;-65
2023/06/30 11:56:59;;;;;;;4.37;2.60;;;;;;;;;;756138;183;920016;-65
2023/06/30 11:59:25;;;;;;;3.60;2.50;;;;;;;;;;764243;183;919330;-65
2023/06/30 12:01:50;;;;;;;5.03;2.73;;;;;;;;;;759120;183;919550;-67
2023/06/30 12:04:19;;;;;;;3.97;2.60;;;;;;;;;;758006;182;920107;-65
2023/06/30 12:06:45;;;;;;;5.45;2.60;;;;;;;;;;756154;184;919939;-66
2023/06/30 12:09:11;;;;;;;4.93;2.83;;;;;;;;;;765869;182;913278;-65
2023/06/30 12:11:36;;;;;;;5.47;2.90;;;;;;;;;;767718;182;912985;-65
2023/06/30 12:14:08;;;;;;;3.80;2.63;;;;;;;;;;763828;182;919544;-65
2023/06/30 12:16:39;;;;;;;5.60;3.00;;;;;;;;;;763260;182;819800;-66
2023/06/30 12:19:04;;;;;;;5.53;3.20;;;;;;;;;;767439;181;820420;-66
2023/06/30 12:21:30;;;;;;;4.10;3.10;;;;;;;;;;763021;181;819882;-67
2023/06/30 12:23:56;;;;;;;3.95;2.90;;;;;;;;;;764684;182;825501;-66
2023/06/30 12:26:22;;;;;;;5.00;3.27;;;;;;;;;;767073;182;917487;-67
2023/06/30 12:28:48;;;;;;;5.97;3.40;;;;;;;;;;764091;182;919746;-66
2023/06/30 12:31:14;;;;;;;4.90;2.78;;;;;;;;;;763761;182;815468;-66
2023/06/30 12:33:39;;;;;;;3.53;2.60;;;;;;;;;;769410;182;815645;-67
2023/06/30 12:36:06;;;;;;;5.50;3.30;;;;;;;;;;761937;181;863283;-67
2023/06/30 12:38:32;;;;;;;6.30;3.40;;;;;;;;;;762995;182;818119;-67
2023/06/30 12:40:58;;;;;;;4.17;2.80;;;;;;;;;;767226;182;818918;-68
2023/06/30 12:43:24;;;;;;;5.53;3.00;;;;;;;;;;760857;181;920629;-65
2023/06/30 12:45:49;;;;;;;5.57;3.20;;;;;;;;;;766001;181;918026;-66
2023/06/30 12:48:16;;;;;;;6.80;3.07;;;;;;;;;;766748;182;914482;-66
2023/06/30 12:50:42;;;;;;;5.57;3.20;;;;;;;;;;760496;182;917989;-63
2023/06/30 12:53:08;;;;;;;4.10;2.90;;;;;;;;;;758442;182;922794;-65
2023/06/30 12:55:34;;;;;;;43.43;9.10;;;;;;;;;;761243;182;916533;-65
2023/06/30 12:57:59;;;;;;;6.87;2.80;;;;;;;;;;770747;181;850513;-67
2023/06/30 13:00:25;;;;;;;4.53;2.80;;;;;;;;;;758049;182;918000;-66
2023/06/30 13:02:51;;;;;;;3.90;2.73;;;;;;;;;;760208;182;919571;-66
2023/06/30 13:05:17;;;;;;;5.60;3.30;;;;;;;;;;763717;182;918900;-66
2023/06/30 13:07:43;;;;;;;3.33;2.50;;;;;;;;;;762824;182;919142;-67
2023/06/30 13:10:09;;;;;;;6.33;3.43;;;;;;;;;;763630;182;916515;-65
2023/06/30 13:12:39;;;;;;;14.70;5.10;;;;;;;;;;767537;182;815935;-67
2023/06/30 13:15:01;;;;;;;6.43;2.53;;;;;;;;;;764065;182;919155;-68
2023/06/30 13:17:26;;;;;;;27.13;5.40;;;;;;;;;;759841;182;920867;-67
2023/06/30 13:19:52;;;;;;;4.23;2.73;;;;;;;;;;763260;180;916206;-67
2023/06/30 13:22:18;;;;;;;3.33;2.57;;;;;;;;;;765167;180;921506;-68
2023/06/30 13:24:44;;;;;;;4.67;3.03;;;;;;;;;;752334;184;920313;-67
2023/06/30 13:27:10;;;;;;;4.60;2.63;;;;;;;;;;751386;184;920388;-65
2023/06/30 13:29:36;;;;;;;6.90;2.80;;;;;;;;;;767341;181;914522;-65
2023/06/30 13:32:02;;;;;;;4.13;1.93;;;;;;;;;;763421;182;915872;-66
2023/06/30 13:34:28;;;;;;;4.07;2.50;;;;;;;;;;768411;181;818160;-65
2023/06/30 13:36:53;;;;;;;5.03;2.80;;;;;;;;;;770230;182;815645;-65
2023/06/30 13:39:19;;;;;;;4.60;3.60;;;;;;;;;;762424;181;919303;-66
2023/06/30 13:41:45;;;;;;;3.70;3.07;;;;;;;;;;761287;182;934414;-64
2023/06/30 13:44:11;;;;;;;4.07;2.70;;;;;;;;;;762883;182;917904;-67
2023/06/30 13:46:37;;;;;;;4.90;2.80;;;;;;;;;;764886;181;814162;-66
2023/06/30 13:49:02;;;;;;;5.70;3.00;;;;;;;;;;759091;182;916452;-65
2023/06/30 13:51:29;;;;;;;5.10;2.90;;;;;;;;;;764777;181;921889;-66
2023/06/30 13:53:54;;;;;;;3.60;2.40;;;;;;;;;;763475;182;915683;-65
2023/06/30 13:56:20;;;;;;;3.53;2.60;;;;;;;;;;760762;179;914526;-65
2023/06/30 13:58:46;;;;;;;4.63;2.90;;;;;;;;;;749005;184;916701;-64
2023/06/30 14:01:12;;;;;;;9.17;3.43;;;;;;;;;;768150;182;1017487;-65
2023/06/30 14:03:40;;;;;;;24.93;7.43;;;;;;;;;;761710;181;913121;-64
2023/06/30 14:06:03;;;;;;;7.13;4.40;;;;;;;;;;757761;182;879640;-66
2023/06/30 14:08:30;;;;;;;68.93;18.35;;;;;;;;;;768819;181;922259;-66
2023/06/30 14:10:56;;;;;;;14.83;4.07;;;;;;;;;;759871;183;818362;-65
2023/06/30 14:13:21;;;;;;;5.40;2.80;;;;;;;;;;762621;182;716521;-67
2023/06/30 14:15:47;;;;;;;5.00;2.95;;;;;;;;;;766034;181;815081;-65
2023/06/30 14:18:13;;;;;;;3.57;2.40;;;;;;;;;;770465;181;915156;-66
2023/06/30 14:20:39;;;;;;;5.63;2.80;;;;;;;;;;766726;182;909284;-66
2023/06/30 14:23:05;;;;;;;3.60;2.30;;;;;;;;;;758955;181;914758;-65
2023/06/30 14:25:31;;;;;;;3.97;2.83;;;;;;;;;;768773;182;717204;-66
2023/06/30 14:27:56;;;;;;;4.97;2.90;;;;;;;;;;755090;182;919010;-67
2023/06/30 14:30:28;;;;;;;3.97;2.80;;;;;;;;;;759349;182;816322;-66
2023/06/30 14:32:48;;;;;;;8.63;2.87;;;;;;;;;;767416;182;1021631;-66
2023/06/30 14:35:14;;;;;;;4.03;2.73;;;;;;;;;;762830;181;918384;-66
2023/06/30 14:37:40;;;;;;;4.20;2.57;;;;;;;;;;758196;182;908919;-67
2023/06/30 14:40:06;;;;;;;7.23;3.13;;;;;;;;;;763099;182;916982;-65
2023/06/30 14:42:32;;;;;;;3.83;2.53;;;;;;;;;;770319;180;812317;-67